ADDS METAR Data INFO
IDs: Format: Raw Decoded Include TAF

Data at: 1547 UTC 12 Dec 2017

KJKA 121535Z AUTO 34012G18KT 10SM CLR 13/02 A3011 RMK AO2 T01330015
KJKA 121515Z AUTO 35010G14KT 310V010 10SM CLR 13/02 A3011 RMK AO2 T01310024
KJKA 121455Z AUTO 33011G16KT 300V360 10SM CLR 12/03 A3010 RMK AO2 T01230026
KJKA 121435Z AUTO 33008G17KT 10SM CLR 12/04 A3009 RMK AO2 T01180036
KJKA 121415Z AUTO 33012G17KT 10SM CLR 11/05 A3008 RMK AO2 T01120046
KJKA 121355Z AUTO 31010G16KT 290V350 10SM CLR 11/05 A3007 RMK AO2 T01060051
KJKA 121335Z AUTO 30011G14KT 10SM CLR 10/06 A3007 RMK AO2 T01020055
KJKA 121315Z AUTO 29010G14KT 10SM CLR 10/06 A3006 RMK AO2 T01000060
KJKA 121255Z AUTO 29009KT 10SM CLR 10/06 A3006 RMK AO2 T01010061
KJKA 121235Z AUTO 29008KT 10SM CLR 10/07 A3005 RMK AO2 T01040065
KJKA 121215Z AUTO 29008G19KT 10SM CLR 11/08 A3004 RMK AO2 T01080076
KJKA 121155Z AUTO 28012G18KT 10SM CLR 11/08 A3003 RMK AO2 T01100082 10123 20097
KJKA 121135Z AUTO 28012G21KT 10SM CLR 11/08 A3003 RMK AO2 T01140082
KJKA 121115Z AUTO 28012G24KT 10SM CLR 11/08 A3002 RMK AO2 T01140081
KJKA 121055Z AUTO 27013G21KT 10SM CLR 11/08 A3002 RMK AO2 T01140080
KJKA 121035Z AUTO 29012G22KT 10SM CLR 11/08 A3002 RMK AO2 T01130081
KJKA 121015Z AUTO 28008G18KT 10SM CLR 11/08 A3002 RMK AO2 T01140075
KJKA 120955Z AUTO 29006KT 10SM CLR 11/08 A3002 RMK AO2 T01120078
KJKA 120935Z AUTO 29006KT 10SM CLR 10/08 A3003 RMK AO2 T01030080
KJKA 120915Z AUTO 28004KT 10SM CLR 10/08 A3004 RMK AO2 T01000075
KJKA 120855Z AUTO 28006KT 10SM CLR 10/07 A3005 RMK AO2 T01010073
KJKA 120835Z AUTO 27006KT 10SM CLR 10/08 A3005 RMK AO2 T01030076
KJKA 120815Z AUTO 27006KT 10SM CLR 10/08 A3005 RMK AO2 T01010077
KJKA 120755Z AUTO 27008KT 10SM CLR 11/08 A3006 RMK AO2 T01080080
KJKA 120735Z AUTO 28006KT 10SM CLR 11/08 A3006 RMK AO2 T01110081
KJKA 120715Z AUTO 28007KT 10SM CLR 12/09 A3007 RMK AO2 T01170085
KJKA 120655Z AUTO 28008KT 10SM CLR 12/08 A3007 RMK AO2 T01190081
KJKA 120635Z AUTO 27011G15KT 10SM CLR 12/08 A3007 RMK AO2 T01210084
KJKA 120615Z AUTO 27009KT 10SM CLR 12/10 A3007 RMK AO2 T01160096
KJKA 120555Z AUTO 26008KT 10SM CLR 11/10 A3008 RMK AO2 T01120096 10132 20097
KJKA 120535Z AUTO 26007KT 10SM CLR 10/09 A3009 RMK AO2 T00990087
KJKA 120515Z AUTO 27007KT 10SM CLR 11/09 A3010 RMK AO2 T01070093
KJKA 120455Z AUTO 27006KT 10SM CLR 11/09 A3010 RMK AO2 T01060092 401691012
KJKA 120435Z AUTO 27007KT 10SM CLR 11/09 A3011 RMK AO2 T01110091
KJKA 120410Z AUTO 27006KT 10SM CLR 10/08 A3012 RMK AO2 T01030084
KJKA 120355Z AUTO 25006KT 10SM CLR 10/08 A3012 RMK AO2 T01000077
KJKA 120335Z AUTO 25007KT 10SM CLR 12/08 A3012 RMK AO2 T01160081
KJKA 120315Z AUTO 25009KT 10SM CLR 13/09 A3012 RMK AO2 T01310086
KJKA 120255Z AUTO 24009KT 10SM CLR 13/09 A3012 RMK AO2 T01280085
KJKA 120235Z AUTO 25009KT 10SM CLR 13/08 A3012 RMK AO2 T01250078
KJKA 120215Z AUTO 24009KT 10SM CLR 13/08 A3012 RMK AO2 T01250075
KJKA 120155Z AUTO 25009KT 10SM CLR 13/07 A3012 RMK AO2 T01280073
KJKA 120135Z AUTO 24009KT 10SM CLR 13/07 A3012 RMK AO2 T01250074
KJKA 120115Z AUTO 24007KT 10SM CLR 12/08 A3013 RMK AO2 T01210076
KJKA 120055Z AUTO 25008KT 10SM CLR 12/08 A3014 RMK AO2 T01170077
KJKA 120035Z AUTO 24006KT 10SM CLR 10/07 A3015 RMK AO2 T01010068
KJKA 120015Z AUTO 26005KT 10SM CLR 10/07 A3015 RMK AO2 T01010070
KJKA 112355Z AUTO 24005KT 10SM CLR 10/07 A3015 RMK AO2 T01000068 10169 20097
KJKA 112335Z AUTO 24004KT 10SM CLR 10/07 A3014 RMK AO2 T01010066
KJKA 112315Z AUTO 25005KT 10SM CLR 11/06 A3014 RMK AO2 T01050064
KJKA 112255Z AUTO 25006KT 10SM CLR 12/07 A3014 RMK AO2 T01190066
KJKA 112235Z AUTO 24007KT 10SM CLR 13/07 A3014 RMK AO2 T01330068
KJKA 112215Z AUTO 24006KT 10SM CLR 14/07 A3015 RMK AO2 T01430065
KJKA 112155Z AUTO 25008KT 10SM CLR 15/06 A3015 RMK AO2 T01500061
KJKA 112135Z AUTO 25010KT 10SM CLR 16/06 A3015 RMK AO2 T01550061
KJKA 112115Z AUTO 24010KT 10SM CLR 16/06 A3016 RMK AO2 T01600061
KJKA 112055Z AUTO 25008KT 10SM CLR 16/06 A3016 RMK AO2 T01620060
KJKA 112035Z AUTO 26012KT 10SM CLR 16/05 A3017 RMK AO2 T01610052
KJKA 112015Z AUTO 25011G14KT 10SM CLR 16/06 A3017 RMK AO2 T01640056
KJKA 111955Z AUTO 26009KT 10SM CLR 17/05 A3017 RMK AO2 T01650054
KJKA 111935Z AUTO 25007KT 10SM CLR 17/05 A3018 RMK AO2 T01670054
KJKA 111915Z AUTO 27010G15KT 250V310 10SM CLR 17/05 A3019 RMK AO2 T01660050
KJKA 111855Z AUTO 26010KT 10SM CLR 17/05 A3020 RMK AO2 T01650049
KJKA 111835Z AUTO 25010G14KT 10SM CLR 17/04 A3021 RMK AO2 T01650044
KJKA 111815Z AUTO 26009KT 10SM CLR 16/06 A3022 RMK AO2 T01610056
KJKA 111755Z AUTO 26008KT 10SM CLR 16/05 A3023 RMK AO2 T01590053 10160 21012
KJKA 111735Z AUTO 25008KT 10SM CLR 16/05 A3024 RMK AO2 T01590047
KJKA 111715Z AUTO 25010G14KT 10SM CLR 16/04 A3026 RMK AO2 T01560035
KJKA 111655Z AUTO 26009KT 10SM CLR 15/03 A3027 RMK AO2 T01510027
KJKA 111635Z AUTO 27012KT 10SM CLR 15/02 A3028 RMK AO2 T01460024
KJKA 111615Z AUTO 29007KT 250V320 10SM CLR 14/03 A3028 RMK AO2 T01410028
KJKA 111555Z AUTO 27007KT 10SM CLR 14/04 A3029 RMK AO2 T01370037
KJKA 111535Z AUTO 26007KT 10SM CLR 13/04 A3029 RMK AO2 T01320043
KJKA 111515Z AUTO 27006KT 10SM CLR 12/06 A3030 RMK AO2 T01210056
KJKA 111455Z AUTO 26006KT 10SM CLR 10/06 A3030 RMK AO2 T01000063
KJKA 111435Z AUTO 27006KT 10SM CLR 09/07 A3031 RMK AO2 T00900070
KJKA 111415Z AUTO 31003KT 10SM CLR 07/07 A3031 RMK AO2 T00730073
KJKA 111355Z AUTO 00000KT 10SM CLR 04/04 A3031 RMK AO2 T00370037
KJKA 111335Z AUTO 00000KT 10SM CLR 00/00 A3031 RMK AO2 T00030003
KJKA 111315Z AUTO 00000KT 10SM CLR 00/00 A3031 RMK AO2 T10011001
KJKA 111255Z AUTO 00000KT 4SM BR CLR M01/M01 A3031 RMK AO2 T10111011
KJKA 111235Z AUTO 00000KT 1 1/4SM BR VV007 00/00 A3031 RMK AO2 VIS 1/4V5 T10051005
KJKA 111215Z AUTO 00000KT 3/4SM BR VV005 M01/M01 A3031 RMK AO2 T10101010
KJKA 111155Z AUTO 00000KT 4SM BR SCT002 M01/M01 A3031 RMK AO2 T10061006 10012 21011
KJKA 111135Z AUTO 00000KT 1/2SM FZFG OVC002 M01/M01 A3031 RMK AO2 T10101010
KJKA 111115Z AUTO 00000KT 1/2SM FZFG OVC002 00/00 A3030 RMK AO2 T10051005
KJKA 111055Z AUTO 00000KT 1 1/4SM BR OVC002 M01/M01 A3029 RMK AO2 T10081008
KJKA 111035Z AUTO 00000KT 1/4SM FZFG OVC002 M01/M01 A3030 RMK AO2 T10081008
KJKA 111015Z AUTO 00000KT 1/4SM FZFG OVC002 M01/M01 A3029 RMK AO2 T10061006
KJKA 110955Z AUTO 00000KT 1/4SM FZFG OVC002 00/00 A3030 RMK AO2 T10051005
KJKA 110935Z AUTO 00000KT 1 1/2SM BR BKN002 00/00 A3031 RMK AO2 VIS 1/2V5 T10021002
KJKA 110915Z AUTO 00000KT 1/4SM FZFG OVC002 M01/M01 A3031 RMK AO2 T10061006
KJKA 110855Z AUTO 00000KT 7SM CLR 00/00 A3031 RMK AO2 T00000000
KJKA 110835Z AUTO 00000KT 3SM BR CLR 00/00 A3031 RMK AO2 T10051005
KJKA 110815Z AUTO 00000KT 2 1/2SM BR CLR 00/00 A3030 RMK AO2 VIS 1V5 T10041004
KJKA 110755Z AUTO 00000KT 10SM CLR 01/01 A3030 RMK AO2 T00050005
KJKA 110735Z AUTO 00000KT 5SM BR CLR 00/00 A3031 RMK AO2 T00010001
KJKA 110715Z AUTO 00000KT 10SM CLR 01/01 A3031 RMK AO2 T00070007
KJKA 110655Z AUTO 34003KT 10SM CLR 01/01 A3030 RMK AO2 T00100010
KJKA 110635Z AUTO 00000KT 10SM CLR 01/01 A3030 RMK AO2 T00070007
KJKA 110615Z AUTO 00000KT 10SM CLR 01/01 A3032 RMK AO2 T00050005
KJKA 110555Z AUTO 00000KT 10SM CLR 01/01 A3032 RMK AO2 T00080008 10035 20002
KJKA 110535Z AUTO 00000KT 10SM CLR 00/00 A3033 RMK AO2 T00030003
KJKA 110515Z AUTO 00000KT 10SM CLR 00/00 A3033 RMK AO2 T00020002
KJKA 110455Z AUTO 00000KT 5SM BR CLR 01/01 A3034 RMK AO2 T00080008 401221021
KJKA 110435Z AUTO 00000KT 10SM CLR 01/01 A3034 RMK AO2 T00090009
KJKA 110415Z AUTO 00000KT 10SM CLR 01/01 A3035 RMK AO2 T00070007
KJKA 110355Z AUTO 00000KT 10SM CLR 01/01 A3035 RMK AO2 T00050005